sensor_id;sensor_type;location;lat;lon;timestamp;temperature;humidity
44431;DHT22;30135;47.866;-4.222;2023-07-28T00:00:19;19.30;99.90
44431;DHT22;30135;47.866;-4.222;2023-07-28T00:02:45;19.30;99.90
44431;DHT22;30135;47.866;-4.222;2023-07-28T00:05:13;19.30;99.90
44431;DHT22;30135;47.866;-4.222;2023-07-28T00:07:39;19.30;99.90
44431;DHT22;30135;47.866;-4.222;2023-07-28T00:10:05;19.30;99.90
44431;DHT22;30135;47.866;-4.222;2023-07-28T00:12:31;19.30;99.90
44431;DHT22;30135;47.866;-4.222;2023-07-28T00:14:57;19.20;99.90
44431;DHT22;30135;47.866;-4.222;2023-07-28T00:17:25;19.20;99.90
44431;DHT22;30135;47.866;-4.222;2023-07-28T00:19:51;19.20;99.90
44431;DHT22;30135;47.866;-4.222;2023-07-28T00:22:17;19.20;99.90
44431;DHT22;30135;47.866;-4.222;2023-07-28T00:24:43;19.20;99.90
44431;DHT22;30135;47.866;-4.222;2023-07-28T00:27:09;19.20;99.90
44431;DHT22;30135;47.866;-4.222;2023-07-28T00:29:35;19.20;99.90
44431;DHT22;30135;47.866;-4.222;2023-07-28T00:32:01;19.20;99.90
44431;DHT22;30135;47.866;-4.222;2023-07-28T00:34:30;19.20;99.90
44431;DHT22;30135;47.866;-4.222;2023-07-28T00:36:56;19.20;99.90
44431;DHT22;30135;47.866;-4.222;2023-07-28T00:39:22;19.10;99.90
44431;DHT22;30135;47.866;-4.222;2023-07-28T00:41:48;19.20;99.90
44431;DHT22;30135;47.866;-4.222;2023-07-28T00:44:14;19.10;99.90
44431;DHT22;30135;47.866;-4.222;2023-07-28T00:46:45;19.10;99.90
44431;DHT22;30135;47.866;-4.222;2023-07-28T00:49:11;19.10;99.90
44431;DHT22;30135;47.866;-4.222;2023-07-28T00:51:37;19.10;99.90
44431;DHT22;30135;47.866;-4.222;2023-07-28T00:54:05;19.10;99.90
44431;DHT22;30135;47.866;-4.222;2023-07-28T00:56:34;19.10;99.90
44431;DHT22;30135;47.866;-4.222;2023-07-28T00:59:00;19.10;99.90
44431;DHT22;30135;47.866;-4.222;2023-07-28T01:01:26;19.10;99.90
44431;DHT22;30135;47.866;-4.222;2023-07-28T01:03:53;19.10;99.90
44431;DHT22;30135;47.866;-4.222;2023-07-28T01:09:08;19.10;99.90
44431;DHT22;30135;47.866;-4.222;2023-07-28T01:11:36;19.00;99.90
44431;DHT22;30135;47.866;-4.222;2023-07-28T01:14:02;19.10;99.90
44431;DHT22;30135;47.866;-4.222;2023-07-28T01:16:28;19.10;99.90
44431;DHT22;30135;47.866;-4.222;2023-07-28T01:18:54;19.00;99.90
44431;DHT22;30135;47.866;-4.222;2023-07-28T01:21:22;19.00;99.90
44431;DHT22;30135;47.866;-4.222;2023-07-28T01:26:36;19.00;99.90
44431;DHT22;30135;47.866;-4.222;2023-07-28T01:29:06;19.00;99.90
44431;DHT22;30135;47.866;-4.222;2023-07-28T01:31:33;19.00;99.90
44431;DHT22;30135;47.866;-4.222;2023-07-28T01:33:59;19.00;99.90
44431;DHT22;30135;47.866;-4.222;2023-07-28T01:36:24;19.00;99.90
44431;DHT22;30135;47.866;-4.222;2023-07-28T01:38:50;19.00;99.90
44431;DHT22;30135;47.866;-4.222;2023-07-28T01:41:16;19.00;99.90
44431;DHT22;30135;47.866;-4.222;2023-07-28T01:43:42;19.00;99.90
44431;DHT22;30135;47.866;-4.222;2023-07-28T01:46:08;18.90;99.90
44431;DHT22;30135;47.866;-4.222;2023-07-28T01:48:35;18.90;99.90
44431;DHT22;30135;47.866;-4.222;2023-07-28T01:51:00;19.00;99.90
44431;DHT22;30135;47.866;-4.222;2023-07-28T01:53:26;18.90;99.90
44431;DHT22;30135;47.866;-4.222;2023-07-28T01:55:52;18.90;99.90
44431;DHT22;30135;47.866;-4.222;2023-07-28T01:58:19;18.90;99.90
44431;DHT22;30135;47.866;-4.222;2023-07-28T02:00:45;18.90;99.90
44431;DHT22;30135;47.866;-4.222;2023-07-28T02:03:12;18.90;99.90
44431;DHT22;30135;47.866;-4.222;2023-07-28T02:05:38;18.90;99.90
44431;DHT22;30135;47.866;-4.222;2023-07-28T02:08:04;18.90;99.90
44431;DHT22;30135;47.866;-4.222;2023-07-28T02:10:30;18.90;99.90
44431;DHT22;30135;47.866;-4.222;2023-07-28T02:12:56;18.90;99.90
44431;DHT22;30135;47.866;-4.222;2023-07-28T02:15:22;18.90;99.90
44431;DHT22;30135;47.866;-4.222;2023-07-28T02:17:48;18.90;99.90
44431;DHT22;30135;47.866;-4.222;2023-07-28T02:20:14;18.90;99.90
44431;DHT22;30135;47.866;-4.222;2023-07-28T02:22:42;18.90;99.90
44431;DHT22;30135;47.866;-4.222;2023-07-28T02:25:09;18.80;99.90
44431;DHT22;30135;47.866;-4.222;2023-07-28T02:27:37;18.80;99.90
44431;DHT22;30135;47.866;-4.222;2023-07-28T02:30:04;18.80;99.90
44431;DHT22;30135;47.866;-4.222;2023-07-28T02:32:30;18.80;99.90
44431;DHT22;30135;47.866;-4.222;2023-07-28T02:34:57;18.80;99.90
44431;DHT22;30135;47.866;-4.222;2023-07-28T02:37:23;18.80;99.90
44431;DHT22;30135;47.866;-4.222;2023-07-28T02:39:50;18.80;99.90
44431;DHT22;30135;47.866;-4.222;2023-07-28T02:42:16;18.80;99.90
44431;DHT22;30135;47.866;-4.222;2023-07-28T02:44:42;18.80;99.90
44431;DHT22;30135;47.866;-4.222;2023-07-28T02:47:08;18.80;99.90
44431;DHT22;30135;47.866;-4.222;2023-07-28T02:49:33;18.80;99.90
44431;DHT22;30135;47.866;-4.222;2023-07-28T02:52:00;18.80;99.90
44431;DHT22;30135;47.866;-4.222;2023-07-28T02:54:26;18.80;99.90
44431;DHT22;30135;47.866;-4.222;2023-07-28T02:56:52;18.80;99.90
44431;DHT22;30135;47.866;-4.222;2023-07-28T02:59:18;18.80;99.90
44431;DHT22;30135;47.866;-4.222;2023-07-28T03:01:47;18.70;99.90
44431;DHT22;30135;47.866;-4.222;2023-07-28T03:04:18;18.70;99.90
44431;DHT22;30135;47.866;-4.222;2023-07-28T03:06:45;18.70;99.90
44431;DHT22;30135;47.866;-4.222;2023-07-28T03:09:12;18.70;99.90
44431;DHT22;30135;47.866;-4.222;2023-07-28T03:11:38;18.70;99.90
44431;DHT22;30135;47.866;-4.222;2023-07-28T03:14:04;18.70;99.90
44431;DHT22;30135;47.866;-4.222;2023-07-28T03:16:30;18.70;99.90
44431;DHT22;30135;47.866;-4.222;2023-07-28T03:18:56;18.70;99.90
44431;DHT22;30135;47.866;-4.222;2023-07-28T03:21:22;18.70;99.90
44431;DHT22;30135;47.866;-4.222;2023-07-28T03:23:48;18.70;99.90
44431;DHT22;30135;47.866;-4.222;2023-07-28T03:26:14;18.70;99.90
44431;DHT22;30135;47.866;-4.222;2023-07-28T03:28:40;18.70;99.90
44431;DHT22;30135;47.866;-4.222;2023-07-28T03:31:05;18.70;99.90
44431;DHT22;30135;47.866;-4.222;2023-07-28T03:33:31;18.70;99.90
44431;DHT22;30135;47.866;-4.222;2023-07-28T03:35:57;18.70;99.90
44431;DHT22;30135;47.866;-4.222;2023-07-28T03:38:23;18.70;99.90
44431;DHT22;30135;47.866;-4.222;2023-07-28T03:40:50;18.60;99.90
44431;DHT22;30135;47.866;-4.222;2023-07-28T03:43:16;18.70;99.90
44431;DHT22;30135;47.866;-4.222;2023-07-28T03:45:42;18.60;99.90
44431;DHT22;30135;47.866;-4.222;2023-07-28T03:48:08;18.60;99.90
44431;DHT22;30135;47.866;-4.222;2023-07-28T03:50:34;18.70;99.90
44431;DHT22;30135;47.866;-4.222;2023-07-28T03:53:00;18.60;99.90
44431;DHT22;30135;47.866;-4.222;2023-07-28T03:55:26;18.60;99.90
44431;DHT22;30135;47.866;-4.222;2023-07-28T03:57:52;18.60;99.90
44431;DHT22;30135;47.866;-4.222;2023-07-28T04:00:18;18.60;99.90
44431;DHT22;30135;47.866;-4.222;2023-07-28T04:02:44;18.60;99.90
44431;DHT22;30135;47.866;-4.222;2023-07-28T04:05:10;18.60;99.90
44431;DHT22;30135;47.866;-4.222;2023-07-28T04:07:35;18.60;99.90
44431;DHT22;30135;47.866;-4.222;2023-07-28T04:10:01;18.60;99.90
44431;DHT22;30135;47.866;-4.222;2023-07-28T04:12:28;18.60;99.90
44431;DHT22;30135;47.866;-4.222;2023-07-28T04:14:54;18.60;99.90
44431;DHT22;30135;47.866;-4.222;2023-07-28T04:17:20;18.60;99.90
44431;DHT22;30135;47.866;-4.222;2023-07-28T04:19:48;18.60;99.90
44431;DHT22;30135;47.866;-4.222;2023-07-28T04:22:14;18.60;99.90
44431;DHT22;30135;47.866;-4.222;2023-07-28T04:24:46;18.60;99.90
44431;DHT22;30135;47.866;-4.222;2023-07-28T04:27:14;18.60;99.90
44431;DHT22;30135;47.866;-4.222;2023-07-28T04:29:40;18.50;99.90
44431;DHT22;30135;47.866;-4.222;2023-07-28T04:32:06;18.50;99.90
44431;DHT22;30135;47.866;-4.222;2023-07-28T04:34:35;18.60;99.90
44431;DHT22;30135;47.866;-4.222;2023-07-28T04:37:01;18.50;99.90
44431;DHT22;30135;47.866;-4.222;2023-07-28T04:39:27;18.50;99.90
44431;DHT22;30135;47.866;-4.222;2023-07-28T04:41:53;18.50;99.90
44431;DHT22;30135;47.866;-4.222;2023-07-28T04:44:19;18.50;99.90
44431;DHT22;30135;47.866;-4.222;2023-07-28T04:46:45;18.50;99.90
44431;DHT22;30135;47.866;-4.222;2023-07-28T04:49:14;18.50;99.90
44431;DHT22;30135;47.866;-4.222;2023-07-28T04:51:43;18.50;99.90
44431;DHT22;30135;47.866;-4.222;2023-07-28T04:54:09;18.50;99.90
44431;DHT22;30135;47.866;-4.222;2023-07-28T04:56:35;18.50;99.90
44431;DHT22;30135;47.866;-4.222;2023-07-28T04:59:01;18.50;99.90
44431;DHT22;30135;47.866;-4.222;2023-07-28T05:01:27;18.50;99.90
44431;DHT22;30135;47.866;-4.222;2023-07-28T05:03:53;18.50;99.90
44431;DHT22;30135;47.866;-4.222;2023-07-28T05:06:18;18.50;99.90
44431;DHT22;30135;47.866;-4.222;2023-07-28T05:08:44;18.50;99.90
44431;DHT22;30135;47.866;-4.222;2023-07-28T05:11:10;18.50;99.90
44431;DHT22;30135;47.866;-4.222;2023-07-28T05:13:36;18.50;99.90
44431;DHT22;30135;47.866;-4.222;2023-07-28T05:16:02;18.50;99.90
44431;DHT22;30135;47.866;-4.222;2023-07-28T05:18:28;18.50;99.90
44431;DHT22;30135;47.866;-4.222;2023-07-28T05:20:54;18.50;99.90
44431;DHT22;30135;47.866;-4.222;2023-07-28T05:23:21;18.50;99.90
44431;DHT22;30135;47.866;-4.222;2023-07-28T05:25:47;18.50;99.90
44431;DHT22;30135;47.866;-4.222;2023-07-28T05:28:13;18.50;99.90
44431;DHT22;30135;47.866;-4.222;2023-07-28T05:30:39;18.50;99.90
44431;DHT22;30135;47.866;-4.222;2023-07-28T05:33:04;18.50;99.90
44431;DHT22;30135;47.866;-4.222;2023-07-28T05:35:30;18.50;99.90
44431;DHT22;30135;47.866;-4.222;2023-07-28T05:37:56;18.50;99.90
44431;DHT22;30135;47.866;-4.222;2023-07-28T05:40:22;18.50;99.90
44431;DHT22;30135;47.866;-4.222;2023-07-28T05:42:48;18.50;99.90
44431;DHT22;30135;47.866;-4.222;2023-07-28T05:45:14;18.50;99.90
44431;DHT22;30135;47.866;-4.222;2023-07-28T05:47:40;18.50;99.90
44431;DHT22;30135;47.866;-4.222;2023-07-28T05:50:06;18.50;99.90
44431;DHT22;30135;47.866;-4.222;2023-07-28T05:52:33;18.50;99.90
44431;DHT22;30135;47.866;-4.222;2023-07-28T05:54:59;18.50;99.90
44431;DHT22;30135;47.866;-4.222;2023-07-28T05:57:39;18.50;99.90
44431;DHT22;30135;47.866;-4.222;2023-07-28T06:00:06;18.50;99.90
44431;DHT22;30135;47.866;-4.222;2023-07-28T06:02:36;18.60;99.90
44431;DHT22;30135;47.866;-4.222;2023-07-28T06:05:05;18.60;99.90
44431;DHT22;30135;47.866;-4.222;2023-07-28T06:07:31;18.50;99.90
44431;DHT22;30135;47.866;-4.222;2023-07-28T06:09:57;18.60;99.90
44431;DHT22;30135;47.866;-4.222;2023-07-28T06:12:23;18.60;99.90
44431;DHT22;30135;47.866;-4.222;2023-07-28T06:14:52;18.60;99.90
44431;DHT22;30135;47.866;-4.222;2023-07-28T06:17:21;18.60;99.90
44431;DHT22;30135;47.866;-4.222;2023-07-28T06:19:47;18.60;99.90
44431;DHT22;30135;47.866;-4.222;2023-07-28T06:22:13;18.60;99.90
44431;DHT22;30135;47.866;-4.222;2023-07-28T06:24:39;18.60;99.90
44431;DHT22;30135;47.866;-4.222;2023-07-28T06:27:05;18.60;99.90
44431;DHT22;30135;47.866;-4.222;2023-07-28T06:29:34;18.60;99.90
44431;DHT22;30135;47.866;-4.222;2023-07-28T06:32:00;18.70;99.90
44431;DHT22;30135;47.866;-4.222;2023-07-28T06:34:26;18.70;99.90
44431;DHT22;30135;47.866;-4.222;2023-07-28T06:36:52;18.70;99.90
44431;DHT22;30135;47.866;-4.222;2023-07-28T06:39:19;18.70;99.90
44431;DHT22;30135;47.866;-4.222;2023-07-28T06:41:45;18.70;99.90
44431;DHT22;30135;47.866;-4.222;2023-07-28T06:44:11;18.70;99.90
44431;DHT22;30135;47.866;-4.222;2023-07-28T06:46:37;18.70;99.90
44431;DHT22;30135;47.866;-4.222;2023-07-28T06:49:03;18.70;99.90
44431;DHT22;30135;47.866;-4.222;2023-07-28T06:51:29;18.70;99.90
44431;DHT22;30135;47.866;-4.222;2023-07-28T06:53:55;18.70;99.90
44431;DHT22;30135;47.866;-4.222;2023-07-28T06:56:21;18.70;99.90
44431;DHT22;30135;47.866;-4.222;2023-07-28T06:58:47;18.70;99.90
44431;DHT22;30135;47.866;-4.222;2023-07-28T07:01:13;18.80;99.90
44431;DHT22;30135;47.866;-4.222;2023-07-28T07:03:39;18.70;99.90
44431;DHT22;30135;47.866;-4.222;2023-07-28T07:06:05;18.80;99.90
44431;DHT22;30135;47.866;-4.222;2023-07-28T07:08:31;18.80;99.90
44431;DHT22;30135;47.866;-4.222;2023-07-28T07:10:57;18.80;99.90
44431;DHT22;30135;47.866;-4.222;2023-07-28T07:13:23;18.80;99.90
44431;DHT22;30135;47.866;-4.222;2023-07-28T07:15:49;18.80;99.90
44431;DHT22;30135;47.866;-4.222;2023-07-28T07:18:15;18.80;99.90
44431;DHT22;30135;47.866;-4.222;2023-07-28T07:20:41;18.80;99.90
44431;DHT22;30135;47.866;-4.222;2023-07-28T07:23:07;18.90;99.90
44431;DHT22;30135;47.866;-4.222;2023-07-28T07:25:33;18.90;99.90
44431;DHT22;30135;47.866;-4.222;2023-07-28T07:27:59;18.90;99.90
44431;DHT22;30135;47.866;-4.222;2023-07-28T07:30:25;18.90;99.90
44431;DHT22;30135;47.866;-4.222;2023-07-28T07:32:51;18.90;99.90
44431;DHT22;30135;47.866;-4.222;2023-07-28T07:35:17;18.90;99.90
44431;DHT22;30135;47.866;-4.222;2023-07-28T07:37:43;18.90;99.90
44431;DHT22;30135;47.866;-4.222;2023-07-28T07:40:09;18.90;99.90
44431;DHT22;30135;47.866;-4.222;2023-07-28T07:42:56;18.90;99.90
44431;DHT22;30135;47.866;-4.222;2023-07-28T07:45:21;18.90;99.90
44431;DHT22;30135;47.866;-4.222;2023-07-28T07:47:47;19.00;99.90
44431;DHT22;30135;47.866;-4.222;2023-07-28T07:50:13;19.00;99.90
44431;DHT22;30135;47.866;-4.222;2023-07-28T07:52:39;19.00;99.90
44431;DHT22;30135;47.866;-4.222;2023-07-28T07:55:05;19.00;99.90
44431;DHT22;30135;47.866;-4.222;2023-07-28T07:57:32;19.00;99.90
44431;DHT22;30135;47.866;-4.222;2023-07-28T07:59:58;19.00;99.90
44431;DHT22;30135;47.866;-4.222;2023-07-28T08:02:24;19.00;99.90
44431;DHT22;30135;47.866;-4.222;2023-07-28T08:04:52;19.00;99.90
44431;DHT22;30135;47.866;-4.222;2023-07-28T08:07:21;19.00;99.90
44431;DHT22;30135;47.866;-4.222;2023-07-28T08:09:49;19.10;99.90
44431;DHT22;30135;47.866;-4.222;2023-07-28T08:12:15;19.00;99.90
44431;DHT22;30135;47.866;-4.222;2023-07-28T08:14:42;19.10;99.90
44431;DHT22;30135;47.866;-4.222;2023-07-28T08:17:08;19.10;99.90
44431;DHT22;30135;47.866;-4.222;2023-07-28T08:19:35;19.10;99.90
44431;DHT22;30135;47.866;-4.222;2023-07-28T08:22:02;19.10;99.90
44431;DHT22;30135;47.866;-4.222;2023-07-28T08:24:31;19.10;99.90
44431;DHT22;30135;47.866;-4.222;2023-07-28T08:26:57;19.10;99.90
44431;DHT22;30135;47.866;-4.222;2023-07-28T08:29:23;19.20;99.90
44431;DHT22;30135;47.866;-4.222;2023-07-28T08:31:49;19.20;99.90
44431;DHT22;30135;47.866;-4.222;2023-07-28T08:34:16;19.20;99.90
44431;DHT22;30135;47.866;-4.222;2023-07-28T08:36:43;19.20;99.90
44431;DHT22;30135;47.866;-4.222;2023-07-28T08:39:09;19.20;99.90
44431;DHT22;30135;47.866;-4.222;2023-07-28T08:41:35;19.20;99.90
44431;DHT22;30135;47.866;-4.222;2023-07-28T08:44:02;19.20;99.90
44431;DHT22;30135;47.866;-4.222;2023-07-28T08:46:35;19.30;99.90
44431;DHT22;30135;47.866;-4.222;2023-07-28T08:49:02;19.30;99.90
44431;DHT22;30135;47.866;-4.222;2023-07-28T08:51:28;19.30;99.90
44431;DHT22;30135;47.866;-4.222;2023-07-28T08:53:54;19.30;99.90
44431;DHT22;30135;47.866;-4.222;2023-07-28T08:56:22;19.30;99.90
44431;DHT22;30135;47.866;-4.222;2023-07-28T08:58:49;19.30;99.90
44431;DHT22;30135;47.866;-4.222;2023-07-28T09:01:23;19.30;99.90
44431;DHT22;30135;47.866;-4.222;2023-07-28T09:03:49;19.30;99.90
44431;DHT22;30135;47.866;-4.222;2023-07-28T09:06:15;19.30;99.90
44431;DHT22;30135;47.866;-4.222;2023-07-28T09:08:43;19.40;99.90
44431;DHT22;30135;47.866;-4.222;2023-07-28T09:11:09;19.40;99.90
44431;DHT22;30135;47.866;-4.222;2023-07-28T09:13:39;19.40;99.90
44431;DHT22;30135;47.866;-4.222;2023-07-28T09:16:19;19.40;99.90
44431;DHT22;30135;47.866;-4.222;2023-07-28T09:18:46;19.40;99.90
44431;DHT22;30135;47.866;-4.222;2023-07-28T09:21:19;19.40;99.90
44431;DHT22;30135;47.866;-4.222;2023-07-28T09:23:49;19.40;99.90
44431;DHT22;30135;47.866;-4.222;2023-07-28T09:26:16;19.40;99.90
44431;DHT22;30135;47.866;-4.222;2023-07-28T09:28:42;19.40;99.90
44431;DHT22;30135;47.866;-4.222;2023-07-28T09:31:08;19.40;99.90
44431;DHT22;30135;47.866;-4.222;2023-07-28T09:33:36;19.40;99.90
44431;DHT22;30135;47.866;-4.222;2023-07-28T09:36:13;19.40;99.90
44431;DHT22;30135;47.866;-4.222;2023-07-28T09:38:43;19.50;99.90
44431;DHT22;30135;47.866;-4.222;2023-07-28T09:41:10;19.50;99.90
44431;DHT22;30135;47.866;-4.222;2023-07-28T09:43:40;19.50;99.90
44431;DHT22;30135;47.866;-4.222;2023-07-28T09:46:09;19.50;99.90
44431;DHT22;30135;47.866;-4.222;2023-07-28T09:48:38;19.50;99.90
44431;DHT22;30135;47.866;-4.222;2023-07-28T09:51:17;19.50;99.90
44431;DHT22;30135;47.866;-4.222;2023-07-28T09:53:51;19.50;99.90
44431;DHT22;30135;47.866;-4.222;2023-07-28T09:56:22;19.50;99.90
44431;DHT22;30135;47.866;-4.222;2023-07-28T09:58:53;19.50;99.90
44431;DHT22;30135;47.866;-4.222;2023-07-28T10:01:20;19.50;99.90
44431;DHT22;30135;47.866;-4.222;2023-07-28T10:03:47;19.50;99.90
44431;DHT22;30135;47.866;-4.222;2023-07-28T10:06:14;19.50;99.90
44431;DHT22;30135;47.866;-4.222;2023-07-28T10:08:42;19.50;99.90
44431;DHT22;30135;47.866;-4.222;2023-07-28T10:11:10;19.50;99.90
44431;DHT22;30135;47.866;-4.222;2023-07-28T10:13:42;19.60;99.90
44431;DHT22;30135;47.866;-4.222;2023-07-28T10:16:10;19.50;99.90
44431;DHT22;30135;47.866;-4.222;2023-07-28T10:18:37;19.60;99.90
44431;DHT22;30135;47.866;-4.222;2023-07-28T10:21:10;19.60;99.90
44431;DHT22;30135;47.866;-4.222;2023-07-28T10:23:41;19.60;99.90
44431;DHT22;30135;47.866;-4.222;2023-07-28T10:26:09;19.60;99.90
44431;DHT22;30135;47.866;-4.222;2023-07-28T10:28:37;19.70;99.90
44431;DHT22;30135;47.866;-4.222;2023-07-28T10:31:05;19.60;99.90
44431;DHT22;30135;47.866;-4.222;2023-07-28T10:33:54;19.70;99.90
44431;DHT22;30135;47.866;-4.222;2023-07-28T10:39:18;19.70;99.90
44431;DHT22;30135;47.866;-4.222;2023-07-28T10:42:19;19.70;99.90
44431;DHT22;30135;47.866;-4.222;2023-07-28T10:44:46;19.70;99.90
44431;DHT22;30135;47.866;-4.222;2023-07-28T10:47:12;19.70;99.90
44431;DHT22;30135;47.866;-4.222;2023-07-28T10:49:38;19.70;99.90
44431;DHT22;30135;47.866;-4.222;2023-07-28T10:52:04;19.70;99.90
44431;DHT22;30135;47.866;-4.222;2023-07-28T10:54:34;19.70;99.90
44431;DHT22;30135;47.866;-4.222;2023-07-28T10:57:03;19.70;99.90
44431;DHT22;30135;47.866;-4.222;2023-07-28T10:59:30;19.70;99.90
44431;DHT22;30135;47.866;-4.222;2023-07-28T11:01:56;19.70;99.90
44431;DHT22;30135;47.866;-4.222;2023-07-28T11:04:22;19.80;99.90
44431;DHT22;30135;47.866;-4.222;2023-07-28T11:06:50;19.80;99.90
44431;DHT22;30135;47.866;-4.222;2023-07-28T11:09:18;19.80;99.90
44431;DHT22;30135;47.866;-4.222;2023-07-28T11:11:46;19.80;99.90
44431;DHT22;30135;47.866;-4.222;2023-07-28T11:14:15;19.80;99.90
44431;DHT22;30135;47.866;-4.222;2023-07-28T11:16:43;19.80;99.90
44431;DHT22;30135;47.866;-4.222;2023-07-28T11:19:15;19.80;99.90
44431;DHT22;30135;47.866;-4.222;2023-07-28T11:21:43;19.80;99.90
44431;DHT22;30135;47.866;-4.222;2023-07-28T11:24:10;19.80;99.90
44431;DHT22;30135;47.866;-4.222;2023-07-28T11:26:38;19.80;99.90
44431;DHT22;30135;47.866;-4.222;2023-07-28T11:29:05;19.80;99.90
44431;DHT22;30135;47.866;-4.222;2023-07-28T11:31:31;19.80;99.90
44431;DHT22;30135;47.866;-4.222;2023-07-28T11:33:59;19.80;99.90
44431;DHT22;30135;47.866;-4.222;2023-07-28T11:36:27;19.80;99.90
44431;DHT22;30135;47.866;-4.222;2023-07-28T11:38:57;19.90;99.90
44431;DHT22;30135;47.866;-4.222;2023-07-28T11:41:24;19.80;99.90
44431;DHT22;30135;47.866;-4.222;2023-07-28T11:43:51;19.90;99.90
44431;DHT22;30135;47.866;-4.222;2023-07-28T11:46:42;19.80;99.90
44431;DHT22;30135;47.866;-4.222;2023-07-28T11:51:40;19.80;99.90
44431;DHT22;30135;47.866;-4.222;2023-07-28T11:54:17;19.80;99.90
44431;DHT22;30135;47.866;-4.222;2023-07-28T11:56:49;19.80;99.90
44431;DHT22;30135;47.866;-4.222;2023-07-28T11:59:20;19.80;99.90
44431;DHT22;30135;47.866;-4.222;2023-07-28T12:07:07;19.80;99.90
44431;DHT22;30135;47.866;-4.222;2023-07-28T12:12:16;19.90;99.90
44431;DHT22;30135;47.866;-4.222;2023-07-28T12:14:43;19.90;99.90
44431;DHT22;30135;47.866;-4.222;2023-07-28T12:17:16;19.90;99.90
44431;DHT22;30135;47.866;-4.222;2023-07-28T12:20:05;19.90;99.90
44431;DHT22;30135;47.866;-4.222;2023-07-28T12:22:41;20.00;99.90
44431;DHT22;30135;47.866;-4.222;2023-07-28T12:25:09;20.10;99.90
44431;DHT22;30135;47.866;-4.222;2023-07-28T12:27:35;20.20;99.90
44431;DHT22;30135;47.866;-4.222;2023-07-28T12:30:03;20.20;99.90
44431;DHT22;30135;47.866;-4.222;2023-07-28T12:32:29;20.30;99.90
44431;DHT22;30135;47.866;-4.222;2023-07-28T12:34:55;20.40;99.90
44431;DHT22;30135;47.866;-4.222;2023-07-28T12:37:21;20.40;99.90
44431;DHT22;30135;47.866;-4.222;2023-07-28T12:39:48;20.50;99.90
44431;DHT22;30135;47.866;-4.222;2023-07-28T12:42:14;20.50;99.90
44431;DHT22;30135;47.866;-4.222;2023-07-28T12:44:41;20.60;99.90
44431;DHT22;30135;47.866;-4.222;2023-07-28T12:47:08;20.70;99.90
44431;DHT22;30135;47.866;-4.222;2023-07-28T12:49:34;20.70;99.90
44431;DHT22;30135;47.866;-4.222;2023-07-28T12:52:05;20.80;99.90
44431;DHT22;30135;47.866;-4.222;2023-07-28T12:54:34;20.80;99.90
44431;DHT22;30135;47.866;-4.222;2023-07-28T12:57:01;20.90;99.90
44431;DHT22;30135;47.866;-4.222;2023-07-28T12:59:27;20.90;99.90
44431;DHT22;30135;47.866;-4.222;2023-07-28T13:01:55;20.90;99.90
44431;DHT22;30135;47.866;-4.222;2023-07-28T13:04:21;20.90;99.70
44431;DHT22;30135;47.866;-4.222;2023-07-28T13:06:47;20.90;99.50
44431;DHT22;30135;47.866;-4.222;2023-07-28T13:09:16;21.00;99.40
44431;DHT22;30135;47.866;-4.222;2023-07-28T13:11:42;21.00;99.40
44431;DHT22;30135;47.866;-4.222;2023-07-28T13:14:08;21.00;99.30
44431;DHT22;30135;47.866;-4.222;2023-07-28T13:16:34;21.10;99.30
44431;DHT22;30135;47.866;-4.222;2023-07-28T13:19:01;21.10;98.90
44431;DHT22;30135;47.866;-4.222;2023-07-28T13:21:27;21.10;98.60
44431;DHT22;30135;47.866;-4.222;2023-07-28T13:23:53;21.10;98.40
44431;DHT22;30135;47.866;-4.222;2023-07-28T13:26:19;21.10;98.30
44431;DHT22;30135;47.866;-4.222;2023-07-28T13:28:45;21.00;98.20
44431;DHT22;30135;47.866;-4.222;2023-07-28T13:31:16;21.10;98.10
44431;DHT22;30135;47.866;-4.222;2023-07-28T13:33:43;21.00;98.00
44431;DHT22;30135;47.866;-4.222;2023-07-28T13:36:09;21.00;98.00
44431;DHT22;30135;47.866;-4.222;2023-07-28T13:38:38;21.00;97.90
44431;DHT22;30135;47.866;-4.222;2023-07-28T13:41:05;21.00;97.80
44431;DHT22;30135;47.866;-4.222;2023-07-28T13:43:34;21.00;97.60
44431;DHT22;30135;47.866;-4.222;2023-07-28T13:46:02;21.00;97.50
44431;DHT22;30135;47.866;-4.222;2023-07-28T13:48:31;21.00;97.60
44431;DHT22;30135;47.866;-4.222;2023-07-28T13:50:57;21.10;98.00
44431;DHT22;30135;47.866;-4.222;2023-07-28T13:53:24;21.10;97.50
44431;DHT22;30135;47.866;-4.222;2023-07-28T13:55:50;21.10;97.20
44431;DHT22;30135;47.866;-4.222;2023-07-28T13:58:16;21.00;97.10
44431;DHT22;30135;47.866;-4.222;2023-07-28T14:00:43;21.00;97.00
44431;DHT22;30135;47.866;-4.222;2023-07-28T14:03:09;20.90;97.00
44431;DHT22;30135;47.866;-4.222;2023-07-28T14:05:35;20.90;97.00
44431;DHT22;30135;47.866;-4.222;2023-07-28T14:08:01;20.90;96.90
44431;DHT22;30135;47.866;-4.222;2023-07-28T14:10:27;20.90;96.90
44431;DHT22;30135;47.866;-4.222;2023-07-28T14:12:53;20.90;97.00
44431;DHT22;30135;47.866;-4.222;2023-07-28T14:15:19;20.90;97.00
44431;DHT22;30135;47.866;-4.222;2023-07-28T14:17:45;20.80;97.00
44431;DHT22;30135;47.866;-4.222;2023-07-28T14:20:11;20.80;97.00
44431;DHT22;30135;47.866;-4.222;2023-07-28T14:22:37;20.80;96.90
44431;DHT22;30135;47.866;-4.222;2023-07-28T14:25:03;20.80;96.90
44431;DHT22;30135;47.866;-4.222;2023-07-28T14:27:30;20.70;96.90
44431;DHT22;30135;47.866;-4.222;2023-07-28T14:29:56;20.70;96.80
44431;DHT22;30135;47.866;-4.222;2023-07-28T14:32:22;20.70;96.90
44431;DHT22;30135;47.866;-4.222;2023-07-28T14:34:48;20.70;96.90
44431;DHT22;30135;47.866;-4.222;2023-07-28T14:37:14;20.70;97.00
44431;DHT22;30135;47.866;-4.222;2023-07-28T14:39:41;20.70;97.10
44431;DHT22;30135;47.866;-4.222;2023-07-28T14:42:07;20.60;97.10
44431;DHT22;30135;47.866;-4.222;2023-07-28T14:44:33;20.60;97.10
44431;DHT22;30135;47.866;-4.222;2023-07-28T14:46:58;20.60;97.10
44431;DHT22;30135;47.866;-4.222;2023-07-28T14:49:24;20.60;97.10
44431;DHT22;30135;47.866;-4.222;2023-07-28T14:51:54;20.60;97.20
44431;DHT22;30135;47.866;-4.222;2023-07-28T14:54:20;20.60;97.20
44431;DHT22;30135;47.866;-4.222;2023-07-28T14:56:46;20.60;97.10
44431;DHT22;30135;47.866;-4.222;2023-07-28T14:59:12;20.60;96.90
44431;DHT22;30135;47.866;-4.222;2023-07-28T15:01:38;20.60;96.60
44431;DHT22;30135;47.866;-4.222;2023-07-28T15:04:04;20.60;96.60
44431;DHT22;30135;47.866;-4.222;2023-07-28T15:06:32;20.60;96.60
44431;DHT22;30135;47.866;-4.222;2023-07-28T15:08:58;20.60;96.70
44431;DHT22;30135;47.866;-4.222;2023-07-28T15:11:24;20.60;96.70
44431;DHT22;30135;47.866;-4.222;2023-07-28T15:13:54;20.50;96.70
44431;DHT22;30135;47.866;-4.222;2023-07-28T15:16:20;20.60;96.80
44431;DHT22;30135;47.866;-4.222;2023-07-28T15:18:45;20.60;96.80
44431;DHT22;30135;47.866;-4.222;2023-07-28T15:21:11;20.60;96.80
44431;DHT22;30135;47.866;-4.222;2023-07-28T15:23:38;20.60;96.80
44431;DHT22;30135;47.866;-4.222;2023-07-28T15:26:04;20.60;96.80
44431;DHT22;30135;47.866;-4.222;2023-07-28T15:28:30;20.60;96.80
44431;DHT22;30135;47.866;-4.222;2023-07-28T15:30:56;20.50;96.80
44431;DHT22;30135;47.866;-4.222;2023-07-28T15:33:22;20.50;96.80